sensor_id;sensor_type;location;lat;lon;timestamp;temperature;humidity
27384;DHT22;14851;51.166;4.760;2024-01-30T00:00:10;7.20;99.90
27384;DHT22;14851;51.166;4.760;2024-01-30T00:02:40;7.20;99.90
27384;DHT22;14851;51.166;4.760;2024-01-30T00:05:06;7.10;99.90
27384;DHT22;14851;51.166;4.760;2024-01-30T00:07:33;7.10;99.90
27384;DHT22;14851;51.166;4.760;2024-01-30T00:09:59;7.10;99.90
27384;DHT22;14851;51.166;4.760;2024-01-30T00:12:25;7.10;99.90
27384;DHT22;14851;51.166;4.760;2024-01-30T00:14:52;7.10;99.90
27384;DHT22;14851;51.166;4.760;2024-01-30T00:17:18;7.10;99.90
27384;DHT22;14851;51.166;4.760;2024-01-30T00:19:48;7.10;99.90
27384;DHT22;14851;51.166;4.760;2024-01-30T00:22:14;7.10;99.90
27384;DHT22;14851;51.166;4.760;2024-01-30T00:24:42;7.10;99.90
27384;DHT22;14851;51.166;4.760;2024-01-30T00:27:09;7.10;99.90
27384;DHT22;14851;51.166;4.760;2024-01-30T00:29:35;7.10;99.90
27384;DHT22;14851;51.166;4.760;2024-01-30T00:32:01;7.10;99.90
27384;DHT22;14851;51.166;4.760;2024-01-30T00:34:27;7.20;99.90
27384;DHT22;14851;51.166;4.760;2024-01-30T00:36:56;7.20;99.90
27384;DHT22;14851;51.166;4.760;2024-01-30T00:39:25;7.20;99.90
27384;DHT22;14851;51.166;4.760;2024-01-30T00:41:53;7.20;99.90
27384;DHT22;14851;51.166;4.760;2024-01-30T00:44:27;7.20;99.90
27384;DHT22;14851;51.166;4.760;2024-01-30T00:46:57;7.20;99.90
27384;DHT22;14851;51.166;4.760;2024-01-30T00:49:23;7.30;99.90
27384;DHT22;14851;51.166;4.760;2024-01-30T00:51:49;7.30;99.90
27384;DHT22;14851;51.166;4.760;2024-01-30T00:54:15;7.30;99.90
27384;DHT22;14851;51.166;4.760;2024-01-30T00:56:44;7.30;99.90
27384;DHT22;14851;51.166;4.760;2024-01-30T00:59:11;7.30;99.90
27384;DHT22;14851;51.166;4.760;2024-01-30T01:01:40;7.30;99.90
27384;DHT22;14851;51.166;4.760;2024-01-30T01:04:06;7.30;99.90
27384;DHT22;14851;51.166;4.760;2024-01-30T01:06:36;7.30;99.90
27384;DHT22;14851;51.166;4.760;2024-01-30T01:09:04;7.30;99.90
27384;DHT22;14851;51.166;4.760;2024-01-30T01:11:30;7.30;99.90
27384;DHT22;14851;51.166;4.760;2024-01-30T01:13:57;7.30;99.90
27384;DHT22;14851;51.166;4.760;2024-01-30T01:16:23;7.30;99.90
27384;DHT22;14851;51.166;4.760;2024-01-30T01:18:49;7.30;99.90
27384;DHT22;14851;51.166;4.760;2024-01-30T01:21:15;7.30;99.90
27384;DHT22;14851;51.166;4.760;2024-01-30T01:23:43;7.30;99.90
27384;DHT22;14851;51.166;4.760;2024-01-30T01:26:10;7.30;99.90
27384;DHT22;14851;51.166;4.760;2024-01-30T01:28:36;7.30;99.90
27384;DHT22;14851;51.166;4.760;2024-01-30T01:31:02;7.30;99.90
27384;DHT22;14851;51.166;4.760;2024-01-30T01:33:32;7.20;99.90
27384;DHT22;14851;51.166;4.760;2024-01-30T01:35:59;7.20;99.90
27384;DHT22;14851;51.166;4.760;2024-01-30T01:38:25;7.30;99.90
27384;DHT22;14851;51.166;4.760;2024-01-30T01:40:51;7.30;99.90
27384;DHT22;14851;51.166;4.760;2024-01-30T01:43:17;7.20;99.90
27384;DHT22;14851;51.166;4.760;2024-01-30T01:45:46;7.30;99.90
27384;DHT22;14851;51.166;4.760;2024-01-30T01:48:13;7.30;99.90
27384;DHT22;14851;51.166;4.760;2024-01-30T01:50:44;7.30;99.90
27384;DHT22;14851;51.166;4.760;2024-01-30T01:53:10;7.30;99.90
27384;DHT22;14851;51.166;4.760;2024-01-30T01:55:40;7.30;99.90
27384;DHT22;14851;51.166;4.760;2024-01-30T01:58:07;7.30;99.90
27384;DHT22;14851;51.166;4.760;2024-01-30T02:00:36;7.30;99.90
27384;DHT22;14851;51.166;4.760;2024-01-30T02:03:06;7.30;99.90
27384;DHT22;14851;51.166;4.760;2024-01-30T02:05:32;7.30;99.90
27384;DHT22;14851;51.166;4.760;2024-01-30T02:07:59;7.30;99.90
27384;DHT22;14851;51.166;4.760;2024-01-30T02:10:25;7.20;99.90
27384;DHT22;14851;51.166;4.760;2024-01-30T02:12:52;7.30;99.90
27384;DHT22;14851;51.166;4.760;2024-01-30T02:15:19;7.20;99.90
27384;DHT22;14851;51.166;4.760;2024-01-30T02:17:47;7.20;99.90
27384;DHT22;14851;51.166;4.760;2024-01-30T02:20:14;7.20;99.90
27384;DHT22;14851;51.166;4.760;2024-01-30T02:22:40;7.20;99.90
27384;DHT22;14851;51.166;4.760;2024-01-30T02:25:07;7.20;99.90
27384;DHT22;14851;51.166;4.760;2024-01-30T02:27:33;7.20;99.90
27384;DHT22;14851;51.166;4.760;2024-01-30T02:29:59;7.10;99.90
27384;DHT22;14851;51.166;4.760;2024-01-30T02:32:25;7.20;99.90
27384;DHT22;14851;51.166;4.760;2024-01-30T02:34:51;7.20;99.90
27384;DHT22;14851;51.166;4.760;2024-01-30T02:37:19;7.10;99.90
27384;DHT22;14851;51.166;4.760;2024-01-30T02:39:48;7.20;99.90
27384;DHT22;14851;51.166;4.760;2024-01-30T02:42:14;7.10;99.90
27384;DHT22;14851;51.166;4.760;2024-01-30T02:44:40;7.10;99.90
27384;DHT22;14851;51.166;4.760;2024-01-30T02:47:06;7.10;99.90
27384;DHT22;14851;51.166;4.760;2024-01-30T02:49:33;7.10;99.90
27384;DHT22;14851;51.166;4.760;2024-01-30T02:52:03;7.10;99.90
27384;DHT22;14851;51.166;4.760;2024-01-30T02:54:29;7.10;99.90
27384;DHT22;14851;51.166;4.760;2024-01-30T02:57:00;7.10;99.90
27384;DHT22;14851;51.166;4.760;2024-01-30T02:59:26;7.00;99.90
27384;DHT22;14851;51.166;4.760;2024-01-30T03:01:52;7.00;99.90
27384;DHT22;14851;51.166;4.760;2024-01-30T03:04:19;7.00;99.90
27384;DHT22;14851;51.166;4.760;2024-01-30T03:06:46;7.00;99.90
27384;DHT22;14851;51.166;4.760;2024-01-30T03:09:16;7.00;99.90
27384;DHT22;14851;51.166;4.760;2024-01-30T03:11:44;7.10;99.90
27384;DHT22;14851;51.166;4.760;2024-01-30T03:14:10;7.10;99.90
27384;DHT22;14851;51.166;4.760;2024-01-30T03:16:39;7.10;99.90
27384;DHT22;14851;51.166;4.760;2024-01-30T03:19:09;7.10;99.90
27384;DHT22;14851;51.166;4.760;2024-01-30T03:21:35;7.10;99.90
27384;DHT22;14851;51.166;4.760;2024-01-30T03:24:02;7.10;99.90
27384;DHT22;14851;51.166;4.760;2024-01-30T03:26:29;7.10;99.90
27384;DHT22;14851;51.166;4.760;2024-01-30T03:28:57;7.10;99.90
27384;DHT22;14851;51.166;4.760;2024-01-30T03:31:24;7.10;99.90
27384;DHT22;14851;51.166;4.760;2024-01-30T03:33:50;7.10;99.90
27384;DHT22;14851;51.166;4.760;2024-01-30T03:36:16;7.10;99.90
27384;DHT22;14851;51.166;4.760;2024-01-30T03:38:49;7.10;99.90
27384;DHT22;14851;51.166;4.760;2024-01-30T03:41:20;7.10;99.90
27384;DHT22;14851;51.166;4.760;2024-01-30T03:43:47;7.10;99.90
27384;DHT22;14851;51.166;4.760;2024-01-30T03:46:13;7.10;99.90
27384;DHT22;14851;51.166;4.760;2024-01-30T03:48:42;7.10;99.90
27384;DHT22;14851;51.166;4.760;2024-01-30T03:51:09;7.10;99.90
27384;DHT22;14851;51.166;4.760;2024-01-30T03:53:44;7.10;99.90
27384;DHT22;14851;51.166;4.760;2024-01-30T03:56:12;7.10;99.90
27384;DHT22;14851;51.166;4.760;2024-01-30T03:58:41;7.10;99.90
27384;DHT22;14851;51.166;4.760;2024-01-30T04:01:07;7.20;99.90
27384;DHT22;14851;51.166;4.760;2024-01-30T04:03:38;7.20;99.90
27384;DHT22;14851;51.166;4.760;2024-01-30T04:06:04;7.30;99.90
27384;DHT22;14851;51.166;4.760;2024-01-30T04:08:31;7.30;99.90
27384;DHT22;14851;51.166;4.760;2024-01-30T04:10:57;7.30;99.90
27384;DHT22;14851;51.166;4.760;2024-01-30T04:13:25;7.30;99.90
27384;DHT22;14851;51.166;4.760;2024-01-30T04:15:51;7.30;99.90
27384;DHT22;14851;51.166;4.760;2024-01-30T04:18:18;7.30;99.90
27384;DHT22;14851;51.166;4.760;2024-01-30T04:20:45;7.40;99.90
27384;DHT22;14851;51.166;4.760;2024-01-30T04:23:11;7.40;99.90
27384;DHT22;14851;51.166;4.760;2024-01-30T04:25:40;7.40;99.90
27384;DHT22;14851;51.166;4.760;2024-01-30T04:28:06;7.40;99.90
27384;DHT22;14851;51.166;4.760;2024-01-30T04:30:32;7.40;99.90
27384;DHT22;14851;51.166;4.760;2024-01-30T04:32:58;7.50;99.90
27384;DHT22;14851;51.166;4.760;2024-01-30T04:35:24;7.50;99.90
27384;DHT22;14851;51.166;4.760;2024-01-30T04:37:55;7.50;99.90
27384;DHT22;14851;51.166;4.760;2024-01-30T04:40:21;7.50;99.90
27384;DHT22;14851;51.166;4.760;2024-01-30T04:42:47;7.50;99.90
27384;DHT22;14851;51.166;4.760;2024-01-30T04:45:17;7.50;99.90
27384;DHT22;14851;51.166;4.760;2024-01-30T04:47:46;7.50;99.90
27384;DHT22;14851;51.166;4.760;2024-01-30T04:50:11;7.50;99.90
27384;DHT22;14851;51.166;4.760;2024-01-30T04:52:38;7.60;99.90
27384;DHT22;14851;51.166;4.760;2024-01-30T04:55:05;7.60;99.90
27384;DHT22;14851;51.166;4.760;2024-01-30T04:57:31;7.60;99.90
27384;DHT22;14851;51.166;4.760;2024-01-30T04:59:59;7.60;99.90
27384;DHT22;14851;51.166;4.760;2024-01-30T05:02:25;7.60;99.90
27384;DHT22;14851;51.166;4.760;2024-01-30T05:04:51;7.60;99.90
27384;DHT22;14851;51.166;4.760;2024-01-30T05:07:17;7.60;99.90
27384;DHT22;14851;51.166;4.760;2024-01-30T05:09:44;7.60;99.90
27384;DHT22;14851;51.166;4.760;2024-01-30T05:12:10;7.60;99.90
27384;DHT22;14851;51.166;4.760;2024-01-30T05:14:38;7.70;99.90
27384;DHT22;14851;51.166;4.760;2024-01-30T05:17:07;7.70;99.90
27384;DHT22;14851;51.166;4.760;2024-01-30T05:19:35;7.70;99.90
27384;DHT22;14851;51.166;4.760;2024-01-30T05:22:04;7.70;99.90
27384;DHT22;14851;51.166;4.760;2024-01-30T05:24:30;7.70;99.90
27384;DHT22;14851;51.166;4.760;2024-01-30T05:26:57;7.70;99.90
27384;DHT22;14851;51.166;4.760;2024-01-30T05:29:24;7.70;99.90
27384;DHT22;14851;51.166;4.760;2024-01-30T05:31:50;7.70;99.90
27384;DHT22;14851;51.166;4.760;2024-01-30T05:34:16;7.70;99.90
27384;DHT22;14851;51.166;4.760;2024-01-30T05:36:42;7.80;99.90
27384;DHT22;14851;51.166;4.760;2024-01-30T05:39:08;7.80;99.90
27384;DHT22;14851;51.166;4.760;2024-01-30T05:41:34;7.80;99.90
27384;DHT22;14851;51.166;4.760;2024-01-30T05:44:01;7.80;99.90
27384;DHT22;14851;51.166;4.760;2024-01-30T05:46:29;7.80;99.90
27384;DHT22;14851;51.166;4.760;2024-01-30T05:48:55;7.80;99.90
27384;DHT22;14851;51.166;4.760;2024-01-30T05:51:21;7.90;99.90
27384;DHT22;14851;51.166;4.760;2024-01-30T05:53:47;7.90;99.90
27384;DHT22;14851;51.166;4.760;2024-01-30T05:56:16;7.90;99.90
27384;DHT22;14851;51.166;4.760;2024-01-30T05:58:41;7.90;99.90
27384;DHT22;14851;51.166;4.760;2024-01-30T06:01:09;7.90;99.90
27384;DHT22;14851;51.166;4.760;2024-01-30T06:03:35;7.90;99.90
27384;DHT22;14851;51.166;4.760;2024-01-30T06:06:04;7.90;99.90
27384;DHT22;14851;51.166;4.760;2024-01-30T06:08:32;7.90;99.90
27384;DHT22;14851;51.166;4.760;2024-01-30T06:10:59;8.00;99.90
27384;DHT22;14851;51.166;4.760;2024-01-30T06:13:26;8.00;99.90
27384;DHT22;14851;51.166;4.760;2024-01-30T06:15:59;8.00;99.90
27384;DHT22;14851;51.166;4.760;2024-01-30T06:18:25;8.00;99.90
27384;DHT22;14851;51.166;4.760;2024-01-30T06:20:52;8.00;99.90
27384;DHT22;14851;51.166;4.760;2024-01-30T06:23:21;8.10;99.90
27384;DHT22;14851;51.166;4.760;2024-01-30T06:25:51;8.10;99.90
27384;DHT22;14851;51.166;4.760;2024-01-30T06:28:17;8.10;99.90
27384;DHT22;14851;51.166;4.760;2024-01-30T06:30:43;8.10;99.90
27384;DHT22;14851;51.166;4.760;2024-01-30T06:33:12;8.10;99.90
27384;DHT22;14851;51.166;4.760;2024-01-30T06:35:40;8.20;99.90
27384;DHT22;14851;51.166;4.760;2024-01-30T06:38:11;8.20;99.90
27384;DHT22;14851;51.166;4.760;2024-01-30T06:40:39;8.20;99.90
27384;DHT22;14851;51.166;4.760;2024-01-30T06:43:07;8.20;99.90
27384;DHT22;14851;51.166;4.760;2024-01-30T06:45:33;8.30;99.90
27384;DHT22;14851;51.166;4.760;2024-01-30T06:48:00;8.30;99.90
27384;DHT22;14851;51.166;4.760;2024-01-30T06:50:30;8.30;99.90
27384;DHT22;14851;51.166;4.760;2024-01-30T06:52:58;8.30;99.90
27384;DHT22;14851;51.166;4.760;2024-01-30T06:55:25;8.30;99.90
27384;DHT22;14851;51.166;4.760;2024-01-30T06:57:51;8.30;99.90
27384;DHT22;14851;51.166;4.760;2024-01-30T07:00:19;8.30;99.90
27384;DHT22;14851;51.166;4.760;2024-01-30T07:02:47;8.40;99.90
27384;DHT22;14851;51.166;4.760;2024-01-30T07:05:13;8.40;99.90
27384;DHT22;14851;51.166;4.760;2024-01-30T07:07:40;8.40;99.90
27384;DHT22;14851;51.166;4.760;2024-01-30T07:10:09;8.40;99.90
27384;DHT22;14851;51.166;4.760;2024-01-30T07:12:35;8.40;99.90
27384;DHT22;14851;51.166;4.760;2024-01-30T07:15:01;8.40;99.90
27384;DHT22;14851;51.166;4.760;2024-01-30T07:17:30;8.40;99.90
27384;DHT22;14851;51.166;4.760;2024-01-30T07:19:56;8.40;99.90
27384;DHT22;14851;51.166;4.760;2024-01-30T07:22:22;8.40;99.90
27384;DHT22;14851;51.166;4.760;2024-01-30T07:24:48;8.50;99.90
27384;DHT22;14851;51.166;4.760;2024-01-30T07:27:15;8.50;99.90
27384;DHT22;14851;51.166;4.760;2024-01-30T07:29:44;8.60;99.90
27384;DHT22;14851;51.166;4.760;2024-01-30T07:32:10;8.60;99.90
27384;DHT22;14851;51.166;4.760;2024-01-30T07:34:36;8.60;99.90
27384;DHT22;14851;51.166;4.760;2024-01-30T07:37:04;8.60;99.90
27384;DHT22;14851;51.166;4.760;2024-01-30T07:39:34;8.70;99.90
27384;DHT22;14851;51.166;4.760;2024-01-30T07:42:00;8.70;99.90
27384;DHT22;14851;51.166;4.760;2024-01-30T07:44:29;8.80;99.90
27384;DHT22;14851;51.166;4.760;2024-01-30T07:46:58;8.80;99.90
27384;DHT22;14851;51.166;4.760;2024-01-30T07:49:27;8.80;99.90
27384;DHT22;14851;51.166;4.760;2024-01-30T07:51:53;8.80;99.90
27384;DHT22;14851;51.166;4.760;2024-01-30T07:54:20;8.90;99.90
27384;DHT22;14851;51.166;4.760;2024-01-30T07:56:46;8.90;99.90
27384;DHT22;14851;51.166;4.760;2024-01-30T07:59:12;8.90;99.90
27384;DHT22;14851;51.166;4.760;2024-01-30T08:01:38;8.90;99.90
27384;DHT22;14851;51.166;4.760;2024-01-30T08:04:05;9.00;99.90
27384;DHT22;14851;51.166;4.760;2024-01-30T08:06:33;9.00;99.90
27384;DHT22;14851;51.166;4.760;2024-01-30T08:09:02;9.00;99.90
27384;DHT22;14851;51.166;4.760;2024-01-30T08:11:31;9.10;99.90
27384;DHT22;14851;51.166;4.760;2024-01-30T08:13:57;9.10;99.90
27384;DHT22;14851;51.166;4.760;2024-01-30T08:16:25;9.10;99.90
27384;DHT22;14851;51.166;4.760;2024-01-30T08:18:52;9.20;99.90
27384;DHT22;14851;51.166;4.760;2024-01-30T08:21:19;9.20;99.90
27384;DHT22;14851;51.166;4.760;2024-01-30T08:23:46;9.20;99.90
27384;DHT22;14851;51.166;4.760;2024-01-30T08:26:12;9.20;99.90
27384;DHT22;14851;51.166;4.760;2024-01-30T08:28:38;9.30;99.90
27384;DHT22;14851;51.166;4.760;2024-01-30T08:31:07;9.30;99.90
27384;DHT22;14851;51.166;4.760;2024-01-30T08:33:36;9.40;99.90
27384;DHT22;14851;51.166;4.760;2024-01-30T08:36:02;9.40;99.90
27384;DHT22;14851;51.166;4.760;2024-01-30T08:38:29;9.40;99.90
27384;DHT22;14851;51.166;4.760;2024-01-30T08:40:56;9.50;99.90
27384;DHT22;14851;51.166;4.760;2024-01-30T08:43:26;9.50;99.90
27384;DHT22;14851;51.166;4.760;2024-01-30T08:45:52;9.50;99.90
27384;DHT22;14851;51.166;4.760;2024-01-30T08:48:18;9.60;99.90
27384;DHT22;14851;51.166;4.760;2024-01-30T08:50:44;9.60;99.90
27384;DHT22;14851;51.166;4.760;2024-01-30T08:53:10;9.70;99.90
27384;DHT22;14851;51.166;4.760;2024-01-30T08:55:37;9.70;99.90
27384;DHT22;14851;51.166;4.760;2024-01-30T08:58:04;9.80;99.90
27384;DHT22;14851;51.166;4.760;2024-01-30T09:00:32;9.80;99.90
27384;DHT22;14851;51.166;4.760;2024-01-30T09:03:01;9.80;99.90
27384;DHT22;14851;51.166;4.760;2024-01-30T09:05:27;9.80;99.90
27384;DHT22;14851;51.166;4.760;2024-01-30T09:07:55;9.80;99.90
27384;DHT22;14851;51.166;4.760;2024-01-30T09:10:22;10.10;99.90
27384;DHT22;14851;51.166;4.760;2024-01-30T09:12:48;10.10;99.90
27384;DHT22;14851;51.166;4.760;2024-01-30T09:15:14;10.20;99.90
27384;DHT22;14851;51.166;4.760;2024-01-30T09:17:43;10.20;99.90
27384;DHT22;14851;51.166;4.760;2024-01-30T09:20:09;10.10;99.90
27384;DHT22;14851;51.166;4.760;2024-01-30T09:22:39;10.20;99.90
27384;DHT22;14851;51.166;4.760;2024-01-30T09:25:08;10.20;99.90
27384;DHT22;14851;51.166;4.760;2024-01-30T09:27:34;10.20;99.90
27384;DHT22;14851;51.166;4.760;2024-01-30T09:30:00;10.30;99.90
27384;DHT22;14851;51.166;4.760;2024-01-30T09:32:26;10.30;99.90
27384;DHT22;14851;51.166;4.760;2024-01-30T09:34:52;10.30;99.90
27384;DHT22;14851;51.166;4.760;2024-01-30T09:37:19;10.40;99.90
27384;DHT22;14851;51.166;4.760;2024-01-30T09:39:47;10.40;99.90
27384;DHT22;14851;51.166;4.760;2024-01-30T09:44:47;10.40;99.90
27384;DHT22;14851;51.166;4.760;2024-01-30T09:47:17;10.50;99.90
27384;DHT22;14851;51.166;4.760;2024-01-30T09:49:44;10.60;99.90
27384;DHT22;14851;51.166;4.760;2024-01-30T09:52:11;10.60;99.90
27384;DHT22;14851;51.166;4.760;2024-01-30T09:54:38;10.60;99.90
27384;DHT22;14851;51.166;4.760;2024-01-30T09:57:05;10.60;99.90
27384;DHT22;14851;51.166;4.760;2024-01-30T09:59:33;10.60;99.90
27384;DHT22;14851;51.166;4.760;2024-01-30T10:02:00;10.70;99.90
27384;DHT22;14851;51.166;4.760;2024-01-30T10:04:27;10.70;99.90
27384;DHT22;14851;51.166;4.760;2024-01-30T10:06:52;10.70;99.90
27384;DHT22;14851;51.166;4.760;2024-01-30T10:09:18;10.70;99.90
27384;DHT22;14851;51.166;4.760;2024-01-30T10:11:45;10.80;99.90
27384;DHT22;14851;51.166;4.760;2024-01-30T10:14:13;10.70;99.90
27384;DHT22;14851;51.166;4.760;2024-01-30T10:16:40;10.70;99.90
27384;DHT22;14851;51.166;4.760;2024-01-30T10:19:06;10.70;99.90
27384;DHT22;14851;51.166;4.760;2024-01-30T10:21:33;10.70;99.90
27384;DHT22;14851;51.166;4.760;2024-01-30T10:23:59;10.70;99.90
27384;DHT22;14851;51.166;4.760;2024-01-30T10:26:25;10.70;99.90
27384;DHT22;14851;51.166;4.760;2024-01-30T10:28:51;10.80;99.90
27384;DHT22;14851;51.166;4.760;2024-01-30T10:31:19;10.90;99.90
27384;DHT22;14851;51.166;4.760;2024-01-30T10:33:46;10.80;99.90
27384;DHT22;14851;51.166;4.760;2024-01-30T10:36:14;10.90;99.90
27384;DHT22;14851;51.166;4.760;2024-01-30T10:38:50;10.90;99.90
27384;DHT22;14851;51.166;4.760;2024-01-30T10:41:27;10.90;99.90
27384;DHT22;14851;51.166;4.760;2024-01-30T10:44:08;11.00;99.90
27384;DHT22;14851;51.166;4.760;2024-01-30T10:46:46;11.00;99.90
27384;DHT22;14851;51.166;4.760;2024-01-30T10:49:14;11.00;99.90
27384;DHT22;14851;51.166;4.760;2024-01-30T10:51:42;11.00;99.90
27384;DHT22;14851;51.166;4.760;2024-01-30T10:54:09;11.00;99.90
27384;DHT22;14851;51.166;4.760;2024-01-30T10:56:39;11.00;99.90
27384;DHT22;14851;51.166;4.760;2024-01-30T10:59:05;11.00;99.90
27384;DHT22;14851;51.166;4.760;2024-01-30T11:01:32;11.00;99.90
27384;DHT22;14851;51.166;4.760;2024-01-30T11:04:01;11.00;99.90
27384;DHT22;14851;51.166;4.760;2024-01-30T11:06:27;11.00;99.90
27384;DHT22;14851;51.166;4.760;2024-01-30T11:09:03;11.10;99.90
27384;DHT22;14851;51.166;4.760;2024-01-30T11:11:30;11.10;99.90
27384;DHT22;14851;51.166;4.760;2024-01-30T11:13:55;11.10;99.90
27384;DHT22;14851;51.166;4.760;2024-01-30T11:16:32;11.10;99.90
27384;DHT22;14851;51.166;4.760;2024-01-30T11:19:01;11.10;99.90
27384;DHT22;14851;51.166;4.760;2024-01-30T11:21:28;11.10;99.90
27384;DHT22;14851;51.166;4.760;2024-01-30T11:23:55;11.10;99.90
27384;DHT22;14851;51.166;4.760;2024-01-30T11:26:28;11.10;99.90
27384;DHT22;14851;51.166;4.760;2024-01-30T11:28:55;11.10;99.90
27384;DHT22;14851;51.166;4.760;2024-01-30T11:31:26;11.10;99.90
27384;DHT22;14851;51.166;4.760;2024-01-30T11:33:53;11.00;99.90
27384;DHT22;14851;51.166;4.760;2024-01-30T11:36:22;10.90;99.90
27384;DHT22;14851;51.166;4.760;2024-01-30T11:38:49;10.90;99.90
27384;DHT22;14851;51.166;4.760;2024-01-30T11:41:16;10.80;99.90
27384;DHT22;14851;51.166;4.760;2024-01-30T11:43:42;10.80;99.90
27384;DHT22;14851;51.166;4.760;2024-01-30T11:46:11;10.80;99.90
27384;DHT22;14851;51.166;4.760;2024-01-30T11:48:39;10.70;99.90
27384;DHT22;14851;51.166;4.760;2024-01-30T11:51:06;10.80;99.90
27384;DHT22;14851;51.166;4.760;2024-01-30T11:53:32;10.80;99.90
27384;DHT22;14851;51.166;4.760;2024-01-30T11:56:01;10.80;99.90
27384;DHT22;14851;51.166;4.760;2024-01-30T11:58:27;10.80;99.90
27384;DHT22;14851;51.166;4.760;2024-01-30T12:00:55;10.80;99.90
27384;DHT22;14851;51.166;4.760;2024-01-30T12:03:24;10.80;99.90
27384;DHT22;14851;51.166;4.760;2024-01-30T12:05:57;10.80;99.90
27384;DHT22;14851;51.166;4.760;2024-01-30T12:08:24;10.80;99.90
27384;DHT22;14851;51.166;4.760;2024-01-30T12:10:57;10.80;99.90
27384;DHT22;14851;51.166;4.760;2024-01-30T12:13:31;10.80;99.90
27384;DHT22;14851;51.166;4.760;2024-01-30T12:15:57;10.80;99.90
27384;DHT22;14851;51.166;4.760;2024-01-30T12:18:25;10.80;99.90
27384;DHT22;14851;51.166;4.760;2024-01-30T12:21:02;10.80;99.90
27384;DHT22;14851;51.166;4.760;2024-01-30T12:23:29;10.80;99.90
27384;DHT22;14851;51.166;4.760;2024-01-30T12:25:55;10.80;99.90
27384;DHT22;14851;51.166;4.760;2024-01-30T12:28:22;10.70;99.90
27384;DHT22;14851;51.166;4.760;2024-01-30T12:30:48;10.70;99.90
27384;DHT22;14851;51.166;4.760;2024-01-30T12:33:20;10.80;99.90
27384;DHT22;14851;51.166;4.760;2024-01-30T12:35:47;10.90;99.90
27384;DHT22;14851;51.166;4.760;2024-01-30T12:38:16;11.00;99.90
27384;DHT22;14851;51.166;4.760;2024-01-30T12:40:42;11.10;99.90
27384;DHT22;14851;51.166;4.760;2024-01-30T12:43:08;11.10;99.90
27384;DHT22;14851;51.166;4.760;2024-01-30T12:45:35;11.20;99.90
27384;DHT22;14851;51.166;4.760;2024-01-30T12:48:02;11.20;99.90
27384;DHT22;14851;51.166;4.760;2024-01-30T12:50:28;11.20;99.90
27384;DHT22;14851;51.166;4.760;2024-01-30T12:52:54;11.10;99.90
27384;DHT22;14851;51.166;4.760;2024-01-30T12:55:23;11.00;99.90
27384;DHT22;14851;51.166;4.760;2024-01-30T12:57:52;11.10;99.90
27384;DHT22;14851;51.166;4.760;2024-01-30T13:00:19;11.00;99.90
27384;DHT22;14851;51.166;4.760;2024-01-30T13:02:45;11.00;99.90
27384;DHT22;14851;51.166;4.760;2024-01-30T13:05:11;11.00;99.90
27384;DHT22;14851;51.166;4.760;2024-01-30T13:07:38;10.90;99.90
27384;DHT22;14851;51.166;4.760;2024-01-30T13:10:04;10.90;99.90
27384;DHT22;14851;51.166;4.760;2024-01-30T13:12:30;10.90;99.90
27384;DHT22;14851;51.166;4.760;2024-01-30T13:14:58;11.00;99.90
27384;DHT22;14851;51.166;4.760;2024-01-30T13:17:27;11.00;99.90
27384;DHT22;14851;51.166;4.760;2024-01-30T13:19:53;11.00;99.90
27384;DHT22;14851;51.166;4.760;2024-01-30T13:22:20;11.00;99.90
27384;DHT22;14851;51.166;4.760;2024-01-30T13:24:50;11.00;99.90
27384;DHT22;14851;51.166;4.760;2024-01-30T13:27:17;11.00;99.90
27384;DHT22;14851;51.166;4.760;2024-01-30T13:29:44;11.00;99.90
27384;DHT22;14851;51.166;4.760;2024-01-30T13:32:10;10.90;99.90
27384;DHT22;14851;51.166;4.760;2024-01-30T13:34:39;10.80;99.90
27384;DHT22;14851;51.166;4.760;2024-01-30T13:37:06;10.80;99.90
27384;DHT22;14851;51.166;4.760;2024-01-30T13:39:32;10.80;99.90
27384;DHT22;14851;51.166;4.760;2024-01-30T13:42:03;10.80;99.90
27384;DHT22;14851;51.166;4.760;2024-01-30T13:44:32;10.80;99.90
27384;DHT22;14851;51.166;4.760;2024-01-30T13:46:57;10.70;99.90
27384;DHT22;14851;51.166;4.760;2024-01-30T13:49:26;10.60;99.90
27384;DHT22;14851;51.166;4.760;2024-01-30T13:51:54;10.60;99.90
27384;DHT22;14851;51.166;4.760;2024-01-30T13:54:20;10.60;99.90
27384;DHT22;14851;51.166;4.760;2024-01-30T13:56:46;10.60;99.90
27384;DHT22;14851;51.166;4.760;2024-01-30T13:59:12;10.60;99.90
27384;DHT22;14851;51.166;4.760;2024-01-30T14:01:38;10.50;99.90
27384;DHT22;14851;51.166;4.760;2024-01-30T14:04:07;10.50;99.90
27384;DHT22;14851;51.166;4.760;2024-01-30T14:06:33;10.50;99.90
27384;DHT22;14851;51.166;4.760;2024-01-30T14:08:59;10.50;99.90
27384;DHT22;14851;51.166;4.760;2024-01-30T14:11:25;10.40;99.90
27384;DHT22;14851;51.166;4.760;2024-01-30T14:13:51;10.40;99.90
27384;DHT22;14851;51.166;4.760;2024-01-30T14:16:20;10.40;99.90
27384;DHT22;14851;51.166;4.760;2024-01-30T14:18:46;10.40;99.90
27384;DHT22;14851;51.166;4.760;2024-01-30T14:21:15;10.30;99.90
27384;DHT22;14851;51.166;4.760;2024-01-30T14:23:41;10.30;99.90
27384;DHT22;14851;51.166;4.760;2024-01-30T14:26:07;10.30;99.90
27384;DHT22;14851;51.166;4.760;2024-01-30T14:28:36;10.30;99.90
27384;DHT22;14851;51.166;4.760;2024-01-30T14:31:02;10.20;99.90
27384;DHT22;14851;51.166;4.760;2024-01-30T14:33:29;10.20;99.90
27384;DHT22;14851;51.166;4.760;2024-01-30T14:35:54;10.20;99.90
27384;DHT22;14851;51.166;4.760;2024-01-30T14:38:22;10.10;99.90
27384;DHT22;14851;51.166;4.760;2024-01-30T14:40:53;10.20;99.90
27384;DHT22;14851;51.166;4.760;2024-01-30T14:43:19;10.10;99.90
27384;DHT22;14851;51.166;4.760;2024-01-30T14:45:44;10.10;99.90
27384;DHT22;14851;51.166;4.760;2024-01-30T14:48:13;10.10;99.90
27384;DHT22;14851;51.166;4.760;2024-01-30T14:50:39;10.10;99.90
27384;DHT22;14851;51.166;4.760;2024-01-30T14:53:06;10.10;99.90
27384;DHT22;14851;51.166;4.760;2024-01-30T14:55:34;10.10;99.90
27384;DHT22;14851;51.166;4.760;2024-01-30T14:58:00;10.00;99.90
27384;DHT22;14851;51.166;4.760;2024-01-30T15:00:28;10.00;99.90
27384;DHT22;14851;51.166;4.760;2024-01-30T15:02:54;10.10;99.90
27384;DHT22;14851;51.166;4.760;2024-01-30T15:05:19;10.10;99.90
27384;DHT22;14851;51.166;4.760;2024-01-30T15:07:45;10.10;99.90
27384;DHT22;14851;51.166;4.760;2024-01-30T15:10:13;10.10;99.90
27384;DHT22;14851;51.166;4.760;2024-01-30T15:12:41;10.10;99.90
27384;DHT22;14851;51.166;4.760;2024-01-30T15:15:09;10.10;99.90
27384;DHT22;14851;51.166;4.760;2024-01-30T15:17:37;10.10;99.90
27384;DHT22;14851;51.166;4.760;2024-01-30T15:20:04;10.00;99.90
27384;DHT22;14851;51.166;4.760;2024-01-30T15:22:30;10.00;99.90
27384;DHT22;14851;51.166;4.760;2024-01-30T15:24:56;10.00;99.90
27384;DHT22;14851;51.166;4.760;2024-01-30T15:27:23;10.00;99.90
27384;DHT22;14851;51.166;4.760;2024-01-30T15:29:52;9.80;99.90
27384;DHT22;14851;51.166;4.760;2024-01-30T15:32:18;9.70;99.90
27384;DHT22;14851;51.166;4.760;2024-01-30T15:34:44;9.70;99.90
27384;DHT22;14851;51.166;4.760;2024-01-30T15:37:10;9.70;99.90
27384;DHT22;14851;51.166;4.760;2024-01-30T15:39:38;9.70;99.90
27384;DHT22;14851;51.166;4.760;2024-01-30T15:42:06;9.70;99.90